Gazpromneft East — UBOF4 — position and weather

sailwx.info

Track history (hours):
 
Tides and Currents Weather Stations Pressure Air Temp Water Temp Dewpoint Dewpoint Depression Visibility Wind Speed Wind Dir Waves Ship Positions

Gazpromneft East

Last reported at 2014-Nov-20 08:10 UTC. Time now 2014-Nov-28 03:00 UTC.
Position N 59°54' E 030°06'.

Length 79 m; draft 4 m.

Type: Tanker. MMSI: 273335320.

Date/timePositionNaut miles runAvg speedWind from/ knotsBaromVisibWave heightAir tempDewpointWater temp
2014-Nov-20 08:10N 59°54' E 030°06'4 0.4
2014-Nov-19 22:22N 59°53' E 030°13'0 0.0
2014-Nov-19 13:33N 59°53' E 030°12'2 1.9
2014-Nov-19 12:16N 59°55' E 030°14'0 0.0
2014-Nov-19 10:25N 59°55' E 030°14'0 0.0
2014-Nov-19 09:22N 59°55' E 030°14'3 0.3
2014-Nov-19 01:27N 59°53' E 030°11'1 0.3
2014-Nov-18 22:06N 59°53' E 030°14'0 0.0
2014-Nov-18 20:27N 59°53' E 030°14'1 0.1
2014-Nov-18 08:28N 59°53' E 030°12'1 0.2
2014-Nov-18 04:06N 59°52' E 030°12'0 0.8
2014-Nov-18 03:32N 59°53' E 030°12'1 0.1
2014-Nov-17 20:33N 59°53' E 030°14'0 0.0
2014-Nov-17 19:28N 59°53' E 030°14'0 0.0
2014-Nov-17 18:27N 59°53' E 030°14'1 0.0
2014-Nov-16 21:28N 59°53' E 030°12'0 0.1
2014-Nov-16 16:33N 59°53' E 030°12'2 0.7
2014-Nov-16 13:33N 59°55' E 030°14'1 0.5
2014-Nov-16 12:16N 59°56' E 030°14'0 0.0
2014-Nov-16 11:24N 59°56' E 030°14'0 0.0
2014-Nov-16 10:33N 59°56' E 030°14'0 0.0
2014-Nov-16 09:33N 59°56' E 030°14'0 0.0
2014-Nov-16 08:30N 59°56' E 030°14'0 0.4
2014-Nov-16 07:33N 59°55' E 030°15'2 0.2
2014-Nov-15 16:14N 59°53' E 030°13'  
2014-Nov-11 10:09N 59°53' E 030°14'0 0.0
2014-Nov-11 09:19N 59°53' E 030°14'0 0.0
2014-Nov-11 08:33N 59°53' E 030°14'0 0.1
2014-Nov-11 07:33N 59°53' E 030°13'1 1.1
2014-Nov-11 06:33N 59°53' E 030°11'1 0.0
2014-Nov-10 17:32N 59°53' E 030°10'2 1.6
2014-Nov-10 16:31N 59°53' E 030°13'0 0.0
2014-Nov-10 11:29N 59°53' E 030°13'0 0.0
2014-Nov-10 08:12N 59°53' E 030°13'  
Track history (hours):
 
Tides and Currents Weather Stations Pressure Air Temp Water Temp Dewpoint Dewpoint Depression Visibility Wind Speed Wind Dir Waves Ship Positions

Gazpromneft East

Last reported at 2014-Nov-20 08:10 UTC. Time now 2014-Nov-28 03:00 UTC.
Position N 59°54' E 030°06'.

Length 79 m; draft 4 m.

Type: Tanker. MMSI: 273335320.

Date/timePositionNaut miles runAvg speedWind from/ knotsBaromVisibWave heightAir tempDewpointWater temp
2014-Nov-20 08:10N 59°54' E 030°06'4 0.4
2014-Nov-19 22:22N 59°53' E 030°13'0 0.0
2014-Nov-19 13:33N 59°53' E 030°12'2 1.9
2014-Nov-19 12:16N 59°55' E 030°14'0 0.0
2014-Nov-19 10:25N 59°55' E 030°14'0 0.0
2014-Nov-19 09:22N 59°55' E 030°14'3 0.3
2014-Nov-19 01:27N 59°53' E 030°11'1 0.3
2014-Nov-18 22:06N 59°53' E 030°14'0 0.0
2014-Nov-18 20:27N 59°53' E 030°14'1 0.1
2014-Nov-18 08:28N 59°53' E 030°12'1 0.2
2014-Nov-18 04:06N 59°52' E 030°12'0 0.8
2014-Nov-18 03:32N 59°53' E 030°12'1 0.1
2014-Nov-17 20:33N 59°53' E 030°14'0 0.0
2014-Nov-17 19:28N 59°53' E 030°14'0 0.0
2014-Nov-17 18:27N 59°53' E 030°14'1 0.0
2014-Nov-16 21:28N 59°53' E 030°12'0 0.1
2014-Nov-16 16:33N 59°53' E 030°12'2 0.7
2014-Nov-16 13:33N 59°55' E 030°14'1 0.5
2014-Nov-16 12:16N 59°56' E 030°14'0 0.0
2014-Nov-16 11:24N 59°56' E 030°14'0 0.0
2014-Nov-16 10:33N 59°56' E 030°14'0 0.0
2014-Nov-16 09:33N 59°56' E 030°14'0 0.0
2014-Nov-16 08:30N 59°56' E 030°14'0 0.4
2014-Nov-16 07:33N 59°55' E 030°15'2 0.2
2014-Nov-15 16:14N 59°53' E 030°13'  
2014-Nov-11 10:09N 59°53' E 030°14'0 0.0
2014-Nov-11 09:19N 59°53' E 030°14'0 0.0
2014-Nov-11 08:33N 59°53' E 030°14'0 0.1
2014-Nov-11 07:33N 59°53' E 030°13'1 1.1
2014-Nov-11 06:33N 59°53' E 030°11'1 0.0
2014-Nov-10 17:32N 59°53' E 030°10'2 1.6
2014-Nov-10 16:31N 59°53' E 030°13'0 0.0
2014-Nov-10 11:29N 59°53' E 030°13'0 0.0
2014-Nov-10 08:12N 59°53' E 030°13'  

Dump ship's entire track history